Time;durP1;ratioP1;P1;durP2;ratioP2;P2;SDS_P1;SDS_P2;PMS_P1;PMS_P2;Temp;Humidity;BMP_temperature;BMP_pressure;BME280_temperature;BME280_humidity;BME280_pressure;Samples;Min_cycle;Max_cycle;Signal;HPM_P1;HPM_P2
2022/04/08 00:01:50;;;;;;;8.02;1.48;;;;;;;9.99;48.80;97636.56;5142552;28;20065;-73
2022/04/08 00:04:41;;;;;;;8.00;1.33;;;;;;;10.26;48.70;97640.59;5159949;28;20061;-73
2022/04/08 00:07:32;;;;;;;5.15;1.20;;;;;;;10.66;48.43;97641.31;5156517;28;20054;-73
2022/04/08 00:10:22;;;;;;;5.05;0.90;;;;;;;10.44;49.02;97630.56;5161264;28;20113;-73
2022/04/08 00:13:12;;;;;;;10.18;1.35;;;;;;;10.57;48.78;97648.53;5156195;28;20057;-73
2022/04/08 00:16:03;;;;;;;8.57;1.23;;;;;;;10.35;50.58;97647.50;5161093;28;20115;-73
2022/04/08 00:18:53;;;;;;;6.85;1.35;;;;;;;10.39;50.04;97640.84;5161437;28;20084;-73
2022/04/08 00:21:44;;;;;;;11.10;1.23;;;;;;;9.16;51.78;97628.09;5158573;28;20046;-72
2022/04/08 00:24:34;;;;;;;4.88;1.17;;;;;;;10.20;50.30;97633.31;5161367;28;20508;-73
2022/04/08 00:27:24;;;;;;;8.65;1.58;;;;;;;10.02;50.72;97642.34;5157383;28;20096;-72
2022/04/08 00:30:15;;;;;;;7.60;1.17;;;;;;;9.65;51.80;97635.91;5160936;28;20571;-73
2022/04/08 00:33:05;;;;;;;7.65;1.20;;;;;;;10.23;51.25;97641.75;5159751;28;20061;-72
2022/04/08 00:35:55;;;;;;;5.20;1.33;;;;;;;9.89;51.15;97648.19;5160770;28;20077;-72
2022/04/08 00:38:45;;;;;;;10.27;2.03;;;;;;;10.59;50.26;97654.44;5161303;28;20113;-73
2022/04/08 00:41:35;;;;;;;11.68;1.52;;;;;;;10.01;51.38;97658.41;5159490;28;20050;-72
2022/04/08 00:44:25;;;;;;;5.95;1.10;;;;;;;9.70;53.02;97653.06;5160914;28;20124;-73
2022/04/08 00:47:15;;;;;;;12.10;1.70;;;;;;;10.12;52.16;97660.66;5160431;28;21666;-72
2022/04/08 00:50:06;;;;;;;6.43;1.35;;;;;;;9.93;52.43;97675.16;5155016;28;20054;-72
2022/04/08 00:52:58;;;;;;;7.95;1.20;;;;;;;9.41;54.49;97667.72;5160795;28;20058;-72
2022/04/08 00:55:48;;;;;;;12.45;1.17;;;;;;;9.73;53.17;97666.78;5154717;28;20177;-74
2022/04/08 00:58:39;;;;;;;8.13;1.40;;;;;;;9.88;53.61;97669.56;5146544;28;20109;-73
2022/04/08 01:01:31;;;;;;;6.93;1.70;;;;;;;9.57;53.61;97685.38;5160039;28;20081;-73
2022/04/08 01:04:23;;;;;;;10.52;1.75;;;;;;;9.53;53.97;97682.22;5157294;28;20061;-73
2022/04/08 01:07:14;;;;;;;7.97;1.58;;;;;;;9.06;54.43;97679.50;5160000;28;20054;-73
2022/04/08 01:10:05;;;;;;;14.15;1.67;;;;;;;9.41;53.88;97667.72;5157594;28;20073;-73
2022/04/08 01:12:56;;;;;;;12.38;1.55;;;;;;;9.93;52.78;97672.50;5161654;28;20148;-74
2022/04/08 01:15:46;;;;;;;9.40;1.40;;;;;;;9.50;53.04;97676.47;5156620;28;20494;-73
2022/04/08 01:18:37;;;;;;;10.60;1.67;;;;;;;9.34;53.03;97694.03;5161972;28;20424;-73
2022/04/08 01:21:28;;;;;;;8.48;1.25;;;;;;;9.30;52.23;97674.19;5164205;28;20050;-72
2022/04/08 01:24:20;;;;;;;7.57;1.70;;;;;;;9.43;52.84;97691.34;5164135;28;20062;-72
2022/04/08 01:27:11;;;;;;;6.18;1.50;;;;;;;9.14;51.87;97714.72;5164104;28;20054;-72
2022/04/08 01:30:04;;;;;;;15.43;1.58;;;;;;;8.72;53.45;97698.19;5149401;28;20061;-73
2022/04/08 01:32:54;;;;;;;13.20;1.63;;;;;;;9.03;52.97;97701.00;5162563;28;20057;-73
2022/04/08 01:35:44;;;;;;;8.57;1.33;;;;;;;9.15;53.51;97699.66;5148961;28;20504;-75
2022/04/08 01:38:34;;;;;;;9.60;1.40;;;;;;;8.64;53.87;97696.34;5164014;28;20177;-73
2022/04/08 01:41:28;;;;;;;6.47;0.98;;;;;;;9.39;51.54;97704.91;5163861;28;20093;-73
2022/04/08 01:44:17;;;;;;;11.18;1.70;;;;;;;8.70;52.33;97693.88;5159392;28;20136;-73
2022/04/08 01:47:07;;;;;;;7.88;1.35;;;;;;;8.81;51.97;97708.59;5163616;28;20137;-74
2022/04/08 01:49:57;;;;;;;11.20;1.42;;;;;;;8.83;52.26;97709.25;5163986;28;20061;-73
2022/04/08 01:52:48;;;;;;;7.88;1.38;;;;;;;9.19;51.83;97716.84;5148994;28;20057;-74
2022/04/08 01:55:38;;;;;;;11.93;1.85;;;;;;;9.07;52.49;97724.31;5148622;28;20417;-73
2022/04/08 01:58:29;;;;;;;14.75;1.83;;;;;;;9.38;52.17;97728.91;5161992;28;20065;-73
2022/04/08 02:01:18;;;;;;;5.45;1.23;;;;;;;9.55;52.01;97706.72;5163336;28;20140;-73
2022/04/08 02:04:09;;;;;;;9.95;1.73;;;;;;;10.03;51.68;97715.53;5139925;28;20066;-73
2022/04/08 02:07:02;;;;;;;9.32;1.65;;;;;;;10.38;51.03;97737.25;5163557;28;20061;-73
2022/04/08 02:09:52;;;;;;;14.07;1.63;;;;;;;10.37;52.13;97737.44;5158230;28;20047;-73
2022/04/08 02:12:42;;;;;;;9.45;1.40;;;;;;;10.04;53.20;97732.22;5163469;28;20065;-73
2022/04/08 02:15:34;;;;;;;8.48;1.40;;;;;;;10.15;52.29;97731.03;5163117;28;20058;-73
2022/04/08 02:18:24;;;;;;;11.88;1.42;;;;;;;9.43;54.76;97723.09;5161244;28;20117;-74
2022/04/08 02:21:19;;;;;;;11.23;1.63;;;;;;;8.77;56.46;97706.44;5163624;28;20058;-73
2022/04/08 02:24:09;;;;;;;11.10;1.60;;;;;;;9.38;55.36;97715.69;5134778;28;20073;-73
2022/04/08 02:27:00;;;;;;;7.72;1.40;;;;;;;9.38;55.11;97729.72;5161445;28;20046;-73
2022/04/08 02:29:50;;;;;;;12.50;1.40;;;;;;;10.14;53.36;97719.59;5162625;28;20612;-72
2022/04/08 02:32:40;;;;;;;9.05;1.40;;;;;;;9.52;54.19;97716.81;5163418;28;20102;-72
2022/04/08 02:35:31;;;;;;;12.27;1.60;;;;;;;9.79;53.27;97734.94;5163007;28;20057;-73
2022/04/08 02:38:21;;;;;;;11.65;1.98;;;;;;;9.85;54.39;97734.25;5163092;28;20484;-73
2022/04/08 02:41:11;;;;;;;9.07;1.75;;;;;;;9.57;54.66;97738.28;5160307;28;20167;-73
2022/04/08 02:44:01;;;;;;;6.85;1.80;;;;;;;9.34;54.71;97740.81;5163196;28;20073;-72
2022/04/08 02:46:51;;;;;;;7.82;1.40;;;;;;;9.20;55.37;97759.97;5137411;28;20050;-72
2022/04/08 02:49:41;;;;;;;9.32;1.70;;;;;;;8.94;55.38;97740.66;5163280;28;20133;-72
2022/04/08 02:52:31;;;;;;;10.50;2.03;;;;;;;8.93;55.92;97746.91;5162544;28;20153;-73
2022/04/08 02:55:21;;;;;;;5.85;1.02;;;;;;;8.93;55.27;97765.41;5161924;28;20054;-72
2022/04/08 02:58:11;;;;;;;11.75;1.45;;;;;;;9.12;55.36;97758.19;5162361;28;20109;-73
2022/04/08 03:01:01;;;;;;;8.15;1.45;;;;;;;8.59;56.23;97767.34;5158343;28;20108;-73
2022/04/08 03:03:51;;;;;;;19.45;2.08;;;;;;;9.42;54.32;97751.38;5162733;28;20583;-73
2022/04/08 03:06:41;;;;;;;8.07;1.35;;;;;;;9.55;54.53;97777.34;5162090;28;20136;-73
2022/04/08 03:09:31;;;;;;;8.63;1.90;;;;;;;8.85;54.34;97761.97;5162405;28;20054;-73
2022/04/08 03:12:21;;;;;;;8.60;1.77;;;;;;;8.58;56.16;97769.16;5162618;28;20061;-73
2022/04/08 03:15:11;;;;;;;11.75;1.90;;;;;;;9.46;54.02;97770.41;5161405;28;20051;-73
2022/04/08 03:18:01;;;;;;;8.95;1.27;;;;;;;8.90;55.38;97757.00;5157085;28;20050;-73
2022/04/08 03:20:51;;;;;;;7.75;1.23;;;;;;;8.62;56.04;97762.56;5161814;28;20058;-73
2022/04/08 03:23:43;;;;;;;8.48;1.33;;;;;;;9.17;54.60;97777.00;5156391;28;20613;-74
2022/04/08 03:26:33;;;;;;;8.18;1.33;;;;;;;8.61;55.32;97760.91;5161711;28;20077;-73
2022/04/08 03:29:23;;;;;;;7.18;1.35;;;;;;;8.62;55.37;97773.13;5155911;28;20061;-73
2022/04/08 03:32:13;;;;;;;10.68;1.15;;;;;;;8.74;55.13;97775.47;5147327;28;20070;-72
2022/04/08 03:35:04;;;;;;;8.55;1.45;;;;;;;7.96;56.81;97781.75;5161648;28;20062;-72
2022/04/08 03:37:54;;;;;;;9.07;1.48;;;;;;;9.03;54.95;97767.09;5143648;28;20050;-72
2022/04/08 03:40:43;;;;;;;8.40;1.27;;;;;;;8.93;54.76;97772.53;5161293;28;20053;-72
2022/04/08 03:43:34;;;;;;;7.95;1.95;;;;;;;9.00;54.70;97777.97;5157462;28;20504;-72
2022/04/08 03:46:24;;;;;;;9.23;1.98;;;;;;;9.40;54.00;97777.16;5161814;28;20050;-72
2022/04/08 03:49:15;;;;;;;9.95;1.92;;;;;;;9.01;54.06;97785.78;5161367;28;20648;-72
2022/04/08 03:52:08;;;;;;;9.00;1.35;;;;;;;8.81;54.10;97781.78;5161816;28;20065;-72
2022/04/08 03:55:02;;;;;;;10.55;1.60;;;;;;;9.64;53.45;97794.88;5161427;28;20082;-72
2022/04/08 03:57:52;;;;;;;9.98;1.60;;;;;;;8.55;54.65;97798.56;5161770;28;20081;-72
2022/04/08 04:00:42;;;;;;;12.55;1.48;;;;;;;8.76;53.94;97789.34;5162159;28;20485;-72
2022/04/08 04:03:32;;;;;;;15.82;2.15;;;;;;;8.99;54.12;97800.13;5161593;28;20082;-72
2022/04/08 04:06:23;;;;;;;10.13;1.58;;;;;;;8.79;53.89;97797.78;5155173;28;20612;-72
2022/04/08 04:09:13;;;;;;;5.47;1.42;;;;;;;9.11;52.86;97790.91;5161690;28;20543;-72
2022/04/08 04:12:04;;;;;;;13.13;1.50;;;;;;;8.45;53.78;97777.53;5161257;28;20057;-72
2022/04/08 04:14:55;;;;;;;12.48;1.98;;;;;;;8.71;53.94;97797.78;5143674;28;20128;-72
2022/04/08 04:17:45;;;;;;;10.95;2.17;;;;;;;8.57;53.58;97807.13;5145966;28;20069;-72
2022/04/08 04:20:35;;;;;;;11.60;1.60;;;;;;;8.91;53.31;97807.06;5157725;28;20113;-72
2022/04/08 04:23:26;;;;;;;13.02;1.35;;;;;;;9.46;51.99;97812.72;5164758;28;20116;-73
2022/04/08 04:26:16;;;;;;;13.82;1.42;;;;;;;9.22;52.28;97806.44;5159849;28;20563;-73
2022/04/08 04:29:06;;;;;;;14.18;1.60;;;;;;;9.18;52.73;97805.13;5161161;28;20536;-73
2022/04/08 04:31:59;;;;;;;8.07;1.73;;;;;;;9.51;51.92;97810.44;5160720;28;20066;-74
2022/04/08 04:34:49;;;;;;;9.60;2.03;;;;;;;9.01;51.18;97814.03;5159160;28;20641;-73
2022/04/08 04:37:39;;;;;;;10.82;1.73;;;;;;;9.24;51.61;97812.41;5160664;28;20424;-73
2022/04/08 04:40:29;;;;;;;7.68;1.40;;;;;;;8.98;52.12;97817.81;5160870;28;20164;-73
2022/04/08 04:43:19;;;;;;;10.30;1.30;;;;;;;8.86;53.27;97819.94;5159025;28;20052;-70
2022/04/08 04:46:09;;;;;;;10.02;1.55;;;;;;;8.76;53.32;97795.47;5151711;28;20532;-71
2022/04/08 04:48:59;;;;;;;11.30;1.67;;;;;;;8.44;54.34;97823.44;5159758;28;20535;-71
2022/04/08 04:51:51;;;;;;;10.65;1.55;;;;;;;9.11;52.79;97814.72;5156745;28;20598;-71
2022/04/08 04:54:42;;;;;;;8.75;1.73;;;;;;;9.25;52.74;97814.06;5149575;28;20054;-71
2022/04/08 04:57:32;;;;;;;9.15;1.52;;;;;;;8.30;54.12;97816.06;5164900;28;20050;-71
2022/04/08 05:00:22;;;;;;;13.73;1.90;;;;;;;8.21;55.38;97830.22;5164864;28;20054;-72
2022/04/08 05:03:13;;;;;;;18.00;1.65;;;;;;;8.53;54.93;97821.66;5145844;28;20094;-70
2022/04/08 05:06:04;;;;;;;7.13;1.48;;;;;;;8.24;55.90;97820.19;5146926;28;20094;-71
2022/04/08 05:08:54;;;;;;;15.25;2.20;;;;;;;8.86;54.95;97825.22;5149974;28;20515;-71
2022/04/08 05:11:44;;;;;;;12.05;1.70;;;;;;;9.40;52.69;97820.34;5163715;28;20237;-71
2022/04/08 05:14:35;;;;;;;10.00;1.80;;;;;;;9.06;53.97;97827.56;5162462;28;20139;-73
2022/04/08 05:17:25;;;;;;;12.60;1.73;;;;;;;9.61;52.85;97822.50;5143680;28;20133;-73
2022/04/08 05:20:15;;;;;;;13.07;1.55;;;;;;;9.78;52.60;97828.59;5155234;28;20081;-73
2022/04/08 05:23:05;;;;;;;13.68;2.08;;;;;;;9.46;53.34;97833.91;5154357;28;20585;-71
2022/04/08 05:25:56;;;;;;;7.78;1.42;;;;;;;9.79;52.66;97830.25;5164137;28;20085;-72
2022/04/08 05:28:47;;;;;;;11.93;1.85;;;;;;;9.91;52.40;97828.09;5163879;28;20428;-71
2022/04/08 05:31:37;;;;;;;10.05;1.48;;;;;;;9.84;52.49;97829.75;5164042;28;20144;-71
2022/04/08 05:34:27;;;;;;;9.77;1.92;;;;;;;9.99;52.41;97843.13;5160136;28;20058;-71
2022/04/08 05:37:17;;;;;;;14.88;1.70;;;;;;;9.89;53.39;97836.19;5164333;28;20094;-73
2022/04/08 05:40:14;;;;;;;16.30;1.80;;;;;;;9.93;53.05;97835.84;5159660;28;20140;-74
2022/04/08 05:43:04;;;;;;;11.98;1.67;;;;;;;9.88;52.86;97826.59;5164763;28;20054;-73
2022/04/08 05:45:54;;;;;;;13.60;1.52;;;;;;;9.92;53.04;97847.44;5153766;28;20050;-75
2022/04/08 05:48:44;;;;;;;13.38;2.50;;;;;;;9.93;52.61;97831.38;5156836;28;20537;-74
2022/04/08 05:51:35;;;;;;;15.30;2.33;;;;;;;10.07;53.03;97848.41;5157467;28;20507;-75
2022/04/08 05:54:31;;;;;;;13.02;2.30;;;;;;;10.04;53.29;97836.34;5151681;28;20086;-75
2022/04/08 05:57:25;;;;;;;;;;;;;;;10.07;53.99;97845.78;5166633;28;20064;-70
2022/04/08 06:00:16;;;;;;;12.40;1.70;;;;;;;10.17;53.85;97838.47;5163113;28;20015;-73
2022/04/08 06:03:06;;;;;;;12.60;2.10;;;;;;;10.22;53.80;97841.41;5168454;28;20058;-73
2022/04/08 06:05:57;;;;;;;9.20;2.10;;;;;;;10.19;54.31;97832.97;5168431;28;20628;-73
2022/04/08 06:08:47;;;;;;;13.77;2.08;;;;;;;10.11;54.24;97813.47;5163697;28;20183;-73
2022/04/08 06:11:37;;;;;;;13.57;1.70;;;;;;;10.38;53.41;97821.22;5166059;28;20169;-73
2022/04/08 06:14:27;;;;;;;13.32;2.28;;;;;;;10.43;54.02;97802.94;5160349;28;20085;-73
2022/04/08 06:17:17;;;;;;;13.45;2.08;;;;;;;10.62;53.72;97822.91;5162578;28;20046;-73
2022/04/08 06:20:13;;;;;;;10.93;2.00;;;;;;;10.56;54.84;97816.47;5163316;28;20165;-71
2022/04/08 06:23:03;;;;;;;12.15;1.75;;;;;;;10.61;54.75;97814.16;5148191;28;20081;-71
2022/04/08 06:25:53;;;;;;;9.13;1.83;;;;;;;10.74;54.39;97808.28;5162986;28;20058;-72
2022/04/08 06:28:43;;;;;;;11.43;2.03;;;;;;;10.69;54.45;97807.97;5159463;28;20161;-71
2022/04/08 06:31:33;;;;;;;12.95;1.85;;;;;;;10.64;55.05;97800.56;5163159;28;20058;-73
2022/04/08 06:34:23;;;;;;;8.23;1.90;;;;;;;10.48;53.92;97801.44;5158215;28;20076;-73
2022/04/08 06:37:13;;;;;;;11.30;1.45;;;;;;;10.58;54.10;97803.91;5162662;28;20046;-73
2022/04/08 06:40:06;;;;;;;15.63;2.08;;;;;;;10.78;53.27;97802.47;5157978;28;20050;-73
2022/04/08 06:42:59;;;;;;;7.30;1.25;;;;;;;10.62;52.43;97789.28;5163286;28;20117;-73
2022/04/08 06:45:49;;;;;;;6.38;1.85;;;;;;;10.76;52.24;97796.53;5159702;28;20055;-72
2022/04/08 06:48:40;;;;;;;13.00;1.88;;;;;;;9.93;54.34;97799.59;5148400;28;20042;-72
2022/04/08 06:51:30;;;;;;;8.13;1.60;;;;;;;10.82;52.25;97797.63;5162114;28;20678;-72
2022/04/08 06:54:20;;;;;;;14.77;1.77;;;;;;;11.05;50.62;97800.31;5161267;28;20069;-72
2022/04/08 06:57:10;;;;;;;23.20;7.63;;;;;;;11.15;51.00;97795.59;5157320;28;20058;-71
2022/04/08 07:00:05;;;;;;;14.95;5.20;;;;;;;11.02;51.00;97771.47;5159697;28;20050;-73
2022/04/08 07:02:55;;;;;;;7.13;1.98;;;;;;;10.81;51.86;97780.06;5164480;28;20065;-73
2022/04/08 07:05:46;;;;;;;5.78;1.35;;;;;;;10.17;53.49;97785.47;5166202;28;20196;-74
2022/04/08 07:08:36;;;;;;;9.40;1.67;;;;;;;10.81;51.92;97754.38;5166963;28;20046;-73
2022/04/08 07:11:26;;;;;;;7.57;1.73;;;;;;;9.51;55.71;97789.25;5164554;28;20527;-72
2022/04/08 07:14:16;;;;;;;5.53;1.33;;;;;;;9.39;57.38;97776.34;5168417;28;20184;-72
2022/04/08 07:17:07;;;;;;;9.07;1.00;;;;;;;8.55;57.59;97766.84;5163239;28;20121;-73
2022/04/08 07:19:57;;;;;;;5.97;0.82;;;;;;;8.67;57.99;97777.94;5165788;28;20493;-73
2022/04/08 07:22:48;;;;;;;9.10;1.10;;;;;;;9.02;56.96;97758.34;5167682;28;20500;-72
2022/04/08 07:25:39;;;;;;;3.90;0.93;;;;;;;8.88;56.78;97764.28;5160924;28;20050;-74
2022/04/08 07:28:29;;;;;;;9.50;1.23;;;;;;;9.38;56.58;97761.47;5157901;28;20053;-73
2022/04/08 07:31:19;;;;;;;11.77;1.35;;;;;;;9.67;57.43;97760.13;5158108;28;20428;-72
2022/04/08 07:34:09;;;;;;;7.72;1.55;;;;;;;9.97;56.72;97757.75;5159899;28;20061;-73
2022/04/08 07:36:59;;;;;;;10.20;1.30;;;;;;;9.75;58.00;97757.47;5166970;28;20417;-73
2022/04/08 07:39:50;;;;;;;5.20;1.15;;;;;;;9.53;58.44;97739.63;5162122;28;20132;-73
2022/04/08 07:42:40;;;;;;;9.50;1.45;;;;;;;9.84;57.91;97756.44;5158753;28;20136;-73
2022/04/08 07:45:30;;;;;;;8.32;1.63;;;;;;;10.12;58.56;97746.25;5162344;28;20531;-73
2022/04/08 07:48:20;;;;;;;6.53;1.52;;;;;;;10.08;58.20;97741.47;5161718;28;20046;-73
2022/04/08 07:51:10;;;;;;;7.00;1.40;;;;;;;9.98;60.06;97743.50;5146980;28;20704;-73
2022/04/08 07:54:00;;;;;;;8.23;2.10;;;;;;;9.64;60.45;97734.81;5159815;28;20054;-73
2022/04/08 07:56:50;;;;;;;8.23;2.05;;;;;;;9.98;60.12;97728.44;5161920;28;20056;-73
2022/04/08 07:59:40;;;;;;;15.18;1.85;;;;;;;9.27;62.23;97727.44;5162657;28;20493;-73
2022/04/08 08:02:31;;;;;;;4.97;1.33;;;;;;;9.61;60.13;97737.81;5159972;28;20128;-73
2022/04/08 08:05:21;;;;;;;4.18;1.30;;;;;;;10.23;58.93;97737.13;5161425;28;20189;-73
2022/04/08 08:08:11;;;;;;;5.90;1.30;;;;;;;9.68;62.44;97732.66;5158618;28;20046;-74
2022/04/08 08:11:11;;;;;;;3.85;1.00;;;;;;;9.92;60.77;97731.75;5161223;28;20065;-73
2022/04/08 08:14:16;;;;;;;4.00;1.60;;;;;;;10.20;60.09;97726.88;5161737;28;20057;-73
2022/04/08 08:17:08;;;;;;;4.22;1.10;;;;;;;9.20;61.79;97660.31;5158791;28;20547;-73
2022/04/08 08:19:58;;;;;;;7.20;1.90;;;;;;;9.73;61.80;97706.50;5162191;28;20060;-73
2022/04/08 08:22:49;;;;;;;5.38;2.28;;;;;;;9.85;60.90;97712.25;5146506;28;20061;-73
2022/04/08 08:25:40;;;;;;;6.15;1.30;;;;;;;9.77;62.89;97691.94;5160779;28;20049;-73
2022/04/08 08:28:30;;;;;;;8.27;1.00;;;;;;;9.83;62.01;97699.22;5159474;28;20058;-73
2022/04/08 08:31:20;;;;;;;6.70;1.00;;;;;;;10.16;61.29;97699.06;5164927;28;20054;-73
2022/04/08 08:34:10;;;;;;;3.78;0.98;;;;;;;10.17;62.09;97706.03;5159513;28;20098;-73
2022/04/08 08:37:00;;;;;;;6.45;1.20;;;;;;;10.31;60.49;97701.84;5166137;28;20524;-73
2022/04/08 08:39:55;;;;;;;4.85;1.08;;;;;;;9.62;63.55;97672.47;5159311;28;20046;-73
2022/04/08 08:42:46;;;;;;;7.35;0.88;;;;;;;10.49;58.58;97696.25;5150935;28;20050;-73
2022/04/08 08:45:37;;;;;;;3.35;1.20;;;;;;;9.92;61.67;97691.22;5156938;28;20051;-73
2022/04/08 08:48:30;;;;;;;3.70;1.17;;;;;;;10.36;61.15;97688.88;5162855;28;20502;-73
2022/04/08 08:51:21;;;;;;;5.53;1.20;;;;;;;10.24;61.08;97679.66;5159105;28;20060;-73
2022/04/08 08:54:12;;;;;;;4.30;1.40;;;;;;;10.25;61.46;97676.81;5165168;28;20086;-73
2022/04/08 08:57:02;;;;;;;6.03;1.10;;;;;;;10.38;62.51;97676.28;5165130;28;20050;-73
2022/04/08 09:00:02;;;;;;;13.93;9.02;;;;;;;10.49;60.37;97664.47;5165089;28;20081;-73
2022/04/08 09:02:52;;;;;;;6.22;1.30;;;;;;;10.37;62.43;97653.47;5159253;28;20052;-73
2022/04/08 09:05:47;;;;;;;4.82;0.90;;;;;;;10.67;61.00;97667.66;5164839;28;20057;-73
2022/04/08 09:08:38;;;;;;;3.40;0.68;;;;;;;10.45;60.99;97661.34;5159245;28;20516;-73
2022/04/08 09:11:28;;;;;;;6.38;0.95;;;;;;;10.61;61.54;97664.91;5165432;28;20062;-73
2022/04/08 09:14:27;;;;;;;7.30;2.67;;;;;;;10.57;61.03;97652.00;5160320;28;20069;-73
2022/04/08 09:17:18;;;;;;;5.55;1.65;;;;;;;10.45;62.21;97649.91;5162538;28;20583;-73
2022/04/08 09:20:10;;;;;;;3.58;0.95;;;;;;;10.70;60.94;97643.44;5164066;28;20136;-73
2022/04/08 09:23:00;;;;;;;8.20;1.23;;;;;;;10.26;61.70;97619.41;5150088;28;20049;-73
2022/04/08 09:26:02;;;;;;;3.35;1.20;;;;;;;9.82;64.71;97628.72;5150878;28;20585;-73
2022/04/08 09:28:55;;;;;;;10.45;2.30;;;;;;;9.89;64.10;97611.13;5164026;28;20525;-73
2022/04/08 09:31:50;;;;;;;5.10;1.77;;;;;;;9.92;62.50;97602.03;5164738;28;20559;-73
2022/04/08 09:34:42;;;;;;;3.53;1.20;;;;;;;9.72;63.85;97603.44;5162816;28;20352;-73
2022/04/08 09:37:32;;;;;;;5.03;1.15;;;;;;;9.78;65.24;97594.81;5159550;28;20140;-73
2022/04/08 09:40:23;;;;;;;6.18;1.08;;;;;;;9.93;64.72;97569.25;5147664;28;20053;-73
2022/04/08 09:43:18;;;;;;;2.75;1.17;;;;;;;9.83;65.30;97580.09;5160239;28;20179;-73
2022/04/08 09:46:11;;;;;;;6.82;1.35;;;;;;;9.91;65.54;97573.09;5164366;28;20088;-73
2022/04/08 09:49:06;;;;;;;6.50;1.20;;;;;;;9.91;65.75;97567.78;5158179;28;20447;-73
2022/04/08 09:51:58;;;;;;;3.15;1.00;;;;;;;9.75;63.93;97561.56;5162717;28;20096;-73
2022/04/08 09:54:49;;;;;;;4.38;0.93;;;;;;;9.94;64.80;97559.50;5158027;28;20136;-73
2022/04/08 09:57:39;;;;;;;4.05;1.15;;;;;;;10.01;64.25;97553.31;5161368;28;20156;-73
2022/04/08 10:00:31;;;;;;;3.65;0.90;;;;;;;9.98;64.24;97545.72;5136309;28;20525;-73
2022/04/08 10:03:21;;;;;;;3.58;1.63;;;;;;;9.92;64.35;97542.97;5162483;28;20182;-73
2022/04/08 10:06:12;;;;;;;5.32;1.42;;;;;;;9.88;65.38;97527.41;5155328;28;20058;-73
2022/04/08 10:09:03;;;;;;;1.80;0.80;;;;;;;9.77;64.06;97519.06;5159742;28;20049;-73
2022/04/08 10:12:14;;;;;;;24.35;8.88;;;;;;;9.85;63.77;97513.72;5161277;28;20050;-73
2022/04/08 10:15:39;;;;;;;22.50;8.02;;;;;;;9.93;64.18;97500.41;5162989;28;20105;-73
2022/04/08 10:18:40;;;;;;;7.63;1.17;;;;;;;9.88;64.85;97490.34;5094382;29;20059;-73
2022/04/08 10:21:39;;;;;;;4.78;1.05;;;;;;;9.81;65.38;97492.06;5162348;28;20053;-73
2022/04/08 10:24:31;;;;;;;2.58;1.30;;;;;;;9.88;66.30;97493.00;5159332;28;20093;-73
2022/04/08 10:27:34;;;;;;;5.60;1.00;;;;;;;9.83;66.32;97481.28;5162681;28;20196;-73
2022/04/08 10:30:24;;;;;;;5.88;1.52;;;;;;;9.33;66.10;97475.47;5160588;28;20057;-73
2022/04/08 10:33:24;;;;;;;2.80;0.95;;;;;;;9.77;66.86;97472.25;5163748;28;20054;-74
2022/04/08 10:36:15;;;;;;;2.55;1.00;;;;;;;9.63;64.11;97471.19;5162719;28;20421;-74
2022/04/08 10:39:26;;;;;;;2.75;1.00;;;;;;;9.58;63.28;97464.75;5143198;28;20080;-74
2022/04/08 10:42:21;;;;;;;2.60;0.73;;;;;;;9.53;62.29;97449.38;5163360;28;20513;-74
2022/04/08 10:45:13;;;;;;;2.22;0.60;;;;;;;9.35;62.57;97431.16;5162585;28;20583;-73
2022/04/08 10:48:09;;;;;;;2.00;0.88;;;;;;;9.47;62.18;97438.69;5158164;28;20050;-73
2022/04/08 10:51:13;;;;;;;0.52;0.30;;;;;;;9.64;63.23;97434.94;5160925;28;20053;-73
2022/04/08 10:54:05;;;;;;;0.85;0.30;;;;;;;9.52;61.28;97416.00;5141325;28;20054;-73
2022/04/08 10:56:57;;;;;;;3.40;0.55;;;;;;;9.57;63.92;97426.03;5163029;28;20113;-74
2022/04/08 10:59:57;;;;;;;1.70;0.70;;;;;;;9.69;63.10;97416.69;5159698;28;20108;-73
2022/04/08 11:02:53;;;;;;;4.65;1.10;;;;;;;9.81;63.05;97414.47;5162961;28;20505;-73
2022/04/08 11:05:43;;;;;;;1.52;0.75;;;;;;;9.79;62.61;97385.53;5161911;28;20046;-73
2022/04/08 11:08:34;;;;;;;1.55;0.75;;;;;;;9.91;63.35;97385.13;5160928;28;20078;-73
2022/04/08 11:11:32;;;;;;;1.05;0.65;;;;;;;9.75;64.90;97378.94;5147435;28;20448;-73
2022/04/08 11:14:23;;;;;;;1.30;0.60;;;;;;;9.84;64.18;97375.25;5156045;28;20050;-74
2022/04/08 11:17:13;;;;;;;5.03;0.85;;;;;;;9.61;64.19;97355.91;5156898;28;20065;-74
2022/04/08 11:20:07;;;;;;;2.40;0.60;;;;;;;9.62;64.41;97352.25;5160711;28;20767;-73
2022/04/08 11:22:58;;;;;;;2.33;0.60;;;;;;;9.75;66.45;97347.19;5161129;28;20108;-73
2022/04/08 11:25:48;;;;;;;1.85;0.70;;;;;;;9.75;66.67;97349.84;5148952;28;20061;-73
2022/04/08 11:28:38;;;;;;;5.53;0.95;;;;;;;9.80;67.31;97331.59;5157916;28;20042;-73
2022/04/08 11:31:50;;;;;;;3.63;0.80;;;;;;;9.95;65.33;97336.91;5158964;28;20126;-74
2022/04/08 11:34:41;;;;;;;4.20;0.73;;;;;;;10.16;63.84;97327.44;5160649;28;20658;-74
2022/04/08 11:37:31;;;;;;;2.92;1.30;;;;;;;9.77;64.61;97313.44;5156569;28;20057;-74
2022/04/08 11:40:21;;;;;;;4.07;1.20;;;;;;;9.87;64.65;97318.47;5156866;28;20057;-74
2022/04/08 11:43:13;;;;;;;4.63;1.13;;;;;;;9.98;64.58;97296.84;5160365;28;20050;-73
2022/04/08 11:46:03;;;;;;;3.88;0.90;;;;;;;10.04;65.33;97292.66;5159183;28;20059;-74
2022/04/08 11:48:54;;;;;;;3.97;0.90;;;;;;;9.63;65.03;97264.78;5163223;28;20120;-73
2022/04/08 11:51:45;;;;;;;4.32;1.30;;;;;;;9.96;65.08;97260.94;5161411;28;20110;-73
2022/04/08 11:54:40;;;;;;;5.18;1.20;;;;;;;9.73;67.31;97280.38;5164587;28;20073;-73
2022/04/08 11:57:51;;;;;;;;;;;;;;;9.70;65.89;97266.66;5152550;28;20416;-71
2022/04/08 12:00:41;;;;;;;1.30;0.73;;;;;;;9.85;66.27;97276.28;5147756;28;19935;-72
2022/04/08 12:03:38;;;;;;;2.85;0.90;;;;;;;9.77;66.07;97246.44;5157970;28;20069;-73
2022/04/08 12:06:38;;;;;;;3.10;0.50;;;;;;;9.22;64.90;97244.97;5144737;28;20523;-73
2022/04/08 12:09:30;;;;;;;1.00;0.52;;;;;;;9.66;65.76;97282.09;5160390;28;20165;-74
2022/04/08 12:12:30;;;;;;;3.85;1.13;;;;;;;8.86;67.69;97246.38;5160087;28;20062;-75
2022/04/08 12:15:22;;;;;;;0.82;0.70;;;;;;;9.28;67.72;97250.38;5159436;28;20053;-75
2022/04/08 12:18:12;;;;;;;2.53;0.57;;;;;;;9.16;67.15;97223.50;5158581;28;20766;-76
2022/04/08 12:21:06;;;;;;;1.42;0.68;;;;;;;9.59;67.21;97244.13;5159593;28;20050;-72
2022/04/08 12:23:58;;;;;;;0.73;0.47;;;;;;;8.91;68.47;97249.31;5136687;28;20042;-75
2022/04/08 12:26:51;;;;;;;0.40;0.40;;;;;;;8.73;66.94;97222.34;5152250;28;20089;-75
2022/04/08 12:29:41;;;;;;;2.00;0.60;;;;;;;8.73;67.50;97218.88;5143092;28;20068;-75
2022/04/08 12:32:36;;;;;;;2.90;0.40;;;;;;;8.68;66.10;97220.25;5149575;28;20053;-76
2022/04/08 12:35:27;;;;;;;2.63;0.40;;;;;;;8.52;66.63;97222.16;5150969;28;20089;-74
2022/04/08 12:38:20;;;;;;;0.68;0.45;;;;;;;8.84;66.29;97215.81;5153561;28;20052;-74
2022/04/08 12:41:11;;;;;;;1.05;0.50;;;;;;;9.18;65.07;97216.22;5151653;28;20771;-75
2022/04/08 12:44:02;;;;;;;0.40;0.30;;;;;;;8.85;65.71;97186.59;5157294;28;20436;-74
2022/04/08 12:46:54;;;;;;;2.20;0.43;;;;;;;9.03;66.07;97199.50;5154513;28;20718;-75
2022/04/08 12:49:44;;;;;;;1.48;0.70;;;;;;;8.72;67.63;97181.06;5160610;28;20416;-75
2022/04/08 12:52:34;;;;;;;1.00;0.68;;;;;;;9.10;65.82;97189.84;5152905;28;20632;-75
2022/04/08 12:55:25;;;;;;;1.88;0.80;;;;;;;9.14;66.37;97188.50;5157651;28;20072;-75
2022/04/08 12:58:16;;;;;;;1.90;1.10;;;;;;;9.20;65.80;97167.63;5155588;28;20085;-75
2022/04/08 13:01:06;;;;;;;1.13;0.70;;;;;;;9.39;66.32;97209.44;5155727;28;20441;-75
2022/04/08 13:03:57;;;;;;;0.93;0.63;;;;;;;8.66;67.63;97189.72;5155121;28;20042;-75
2022/04/08 13:06:56;;;;;;;2.80;0.70;;;;;;;8.60;67.17;97187.75;5155293;28;20054;-74
2022/04/08 13:09:46;;;;;;;1.30;0.60;;;;;;;9.09;68.02;97187.38;5152234;28;20076;-74
2022/04/08 13:12:36;;;;;;;0.90;0.60;;;;;;;8.79;67.42;97160.88;5141937;28;20425;-75
2022/04/08 13:15:26;;;;;;;2.17;0.80;;;;;;;9.19;68.79;97145.66;5152367;28;20061;-75
2022/04/08 13:18:17;;;;;;;1.85;0.90;;;;;;;9.28;66.67;97144.56;5153683;28;20620;-75
2022/04/08 13:21:08;;;;;;;1.00;0.70;;;;;;;9.00;67.27;97144.31;5143226;28;20054;-75
2022/04/08 13:23:58;;;;;;;2.20;1.20;;;;;;;9.15;65.63;97118.75;5153537;28;20050;-75
2022/04/08 13:26:48;;;;;;;0.98;0.60;;;;;;;8.74;67.78;97099.81;5155818;28;20150;-75
2022/04/08 13:29:38;;;;;;;1.65;0.60;;;;;;;8.59;66.82;97044.28;5165146;28;20049;-77
2022/04/08 13:32:34;;;;;;;1.83;1.10;;;;;;;9.15;67.42;97086.22;5153379;28;20069;-74